sensor_id;sensor_type;location;lat;lon;timestamp;pressure;altitude;pressure_sealevel;temperature;humidity
43450;BME280;29041;42.266;23.110;2022-07-10T00:01:59;95632.59;;;24.37;48.57
43450;BME280;29041;42.266;23.110;2022-07-10T00:04:47;95639.31;;;24.32;48.91
43450;BME280;29041;42.266;23.110;2022-07-10T00:07:34;95648.72;;;24.07;49.46
43450;BME280;29041;42.266;23.110;2022-07-10T00:10:22;95650.03;;;23.96;49.61
43450;BME280;29041;42.266;23.110;2022-07-10T00:13:09;95647.72;;;24.21;48.85
43450;BME280;29041;42.266;23.110;2022-07-10T00:15:57;95642.41;;;24.62;47.94
43450;BME280;29041;42.266;23.110;2022-07-10T00:18:44;95638.25;;;24.77;47.35
43450;BME280;29041;42.266;23.110;2022-07-10T00:21:32;95641.38;;;23.32;51.46
43450;BME280;29041;42.266;23.110;2022-07-10T00:24:20;95642.03;;;23.77;50.42
43450;BME280;29041;42.266;23.110;2022-07-10T00:27:07;95638.75;;;23.21;51.61
43450;BME280;29041;42.266;23.110;2022-07-10T00:29:54;95632.88;;;24.19;49.07
43450;BME280;29041;42.266;23.110;2022-07-10T00:32:41;95632.44;;;24.48;48.13
43450;BME280;29041;42.266;23.110;2022-07-10T00:35:28;95621.06;;;24.73;47.30
43450;BME280;29041;42.266;23.110;2022-07-10T00:38:17;95624.31;;;23.86;49.83
43450;BME280;29041;42.266;23.110;2022-07-10T00:41:04;95631.56;;;23.38;51.21
43450;BME280;29041;42.266;23.110;2022-07-10T00:43:53;95633.13;;;24.01;49.12
43450;BME280;29041;42.266;23.110;2022-07-10T00:46:40;95620.31;;;24.45;48.01
43450;BME280;29041;42.266;23.110;2022-07-10T00:49:27;95622.78;;;24.12;49.12
43450;BME280;29041;42.266;23.110;2022-07-10T00:52:16;95612.41;;;23.65;49.57
43450;BME280;29041;42.266;23.110;2022-07-10T00:55:06;95614.28;;;23.41;50.60
43450;BME280;29041;42.266;23.110;2022-07-10T00:57:55;95614.63;;;23.47;50.39
43450;BME280;29041;42.266;23.110;2022-07-10T01:00:42;95604.50;;;23.40;50.33
43450;BME280;29041;42.266;23.110;2022-07-10T01:03:29;95611.09;;;24.08;48.47
43450;BME280;29041;42.266;23.110;2022-07-10T01:06:17;95599.09;;;24.26;48.08
43450;BME280;29041;42.266;23.110;2022-07-10T01:09:04;95594.09;;;23.93;48.42
43450;BME280;29041;42.266;23.110;2022-07-10T01:11:52;95607.22;;;23.74;50.12
43450;BME280;29041;42.266;23.110;2022-07-10T01:14:40;95597.94;;;23.65;49.80
43450;BME280;29041;42.266;23.110;2022-07-10T01:17:28;95593.25;;;23.96;48.74
43450;BME280;29041;42.266;23.110;2022-07-10T01:20:16;95581.88;;;23.36;50.12
43450;BME280;29041;42.266;23.110;2022-07-10T01:23:05;95587.09;;;23.57;49.95
43450;BME280;29041;42.266;23.110;2022-07-10T01:25:52;95586.31;;;24.39;47.43
43450;BME280;29041;42.266;23.110;2022-07-10T01:28:39;95591.34;;;23.62;49.54
43450;BME280;29041;42.266;23.110;2022-07-10T01:31:27;95580.78;;;23.88;49.35
43450;BME280;29041;42.266;23.110;2022-07-10T01:34:14;95577.75;;;23.82;48.87
43450;BME280;29041;42.266;23.110;2022-07-10T01:37:01;95582.13;;;22.76;51.32
43450;BME280;29041;42.266;23.110;2022-07-10T01:39:50;95591.09;;;22.27;53.01
43450;BME280;29041;42.266;23.110;2022-07-10T01:42:37;95590.81;;;22.67;51.77
43450;BME280;29041;42.266;23.110;2022-07-10T01:45:25;95575.41;;;23.22;50.33
43450;BME280;29041;42.266;23.110;2022-07-10T01:48:12;95580.56;;;23.48;49.33
43450;BME280;29041;42.266;23.110;2022-07-10T01:50:59;95585.53;;;22.84;50.65
43450;BME280;29041;42.266;23.110;2022-07-10T01:53:46;95583.56;;;22.88;50.88
43450;BME280;29041;42.266;23.110;2022-07-10T01:56:35;95581.03;;;22.66;51.63
43450;BME280;29041;42.266;23.110;2022-07-10T01:59:22;95585.81;;;23.35;49.49
43450;BME280;29041;42.266;23.110;2022-07-10T02:02:09;95577.06;;;23.09;50.14
43450;BME280;29041;42.266;23.110;2022-07-10T02:04:56;95571.50;;;22.81;50.85
43450;BME280;29041;42.266;23.110;2022-07-10T02:07:42;95579.75;;;22.78;50.82
43450;BME280;29041;42.266;23.110;2022-07-10T02:10:30;95579.31;;;22.38;51.86
43450;BME280;29041;42.266;23.110;2022-07-10T02:13:19;95574.97;;;22.86;51.15
43450;BME280;29041;42.266;23.110;2022-07-10T02:16:06;95569.63;;;23.75;48.71
43450;BME280;29041;42.266;23.110;2022-07-10T02:18:53;95583.38;;;22.68;51.15
43450;BME280;29041;42.266;23.110;2022-07-10T02:21:41;95576.78;;;22.09;53.32
43450;BME280;29041;42.266;23.110;2022-07-10T02:24:28;95564.81;;;22.44;51.75
43450;BME280;29041;42.266;23.110;2022-07-10T02:27:15;95567.53;;;22.86;50.62
43450;BME280;29041;42.266;23.110;2022-07-10T02:30:05;95575.78;;;22.41;51.94
43450;BME280;29041;42.266;23.110;2022-07-10T02:32:52;95579.56;;;22.05;52.91
43450;BME280;29041;42.266;23.110;2022-07-10T02:35:40;95574.19;;;23.23;50.01
43450;BME280;29041;42.266;23.110;2022-07-10T02:38:27;95575.38;;;23.53;48.67
43450;BME280;29041;42.266;23.110;2022-07-10T02:41:14;95576.13;;;22.88;50.18
43450;BME280;29041;42.266;23.110;2022-07-10T02:44:01;95573.38;;;22.88;50.05
43450;BME280;29041;42.266;23.110;2022-07-10T02:46:50;95560.00;;;22.97;50.48
43450;BME280;29041;42.266;23.110;2022-07-10T02:49:37;95577.91;;;22.15;52.47
43450;BME280;29041;42.266;23.110;2022-07-10T02:52:24;95576.38;;;22.10;52.65
43450;BME280;29041;42.266;23.110;2022-07-10T02:55:11;95561.25;;;22.47;51.58
43450;BME280;29041;42.266;23.110;2022-07-10T02:57:59;95578.78;;;22.01;53.14
43450;BME280;29041;42.266;23.110;2022-07-10T03:00:46;95576.28;;;22.25;53.48
43450;BME280;29041;42.266;23.110;2022-07-10T03:03:34;95571.44;;;22.89;51.54
43450;BME280;29041;42.266;23.110;2022-07-10T03:06:21;95577.34;;;22.34;52.96
43450;BME280;29041;42.266;23.110;2022-07-10T03:09:09;95571.69;;;22.63;52.20
43450;BME280;29041;42.266;23.110;2022-07-10T03:11:56;95580.38;;;22.93;51.50
43450;BME280;29041;42.266;23.110;2022-07-10T03:14:43;95577.41;;;23.14;51.23
43450;BME280;29041;42.266;23.110;2022-07-10T03:17:30;95580.53;;;22.78;51.35
43450;BME280;29041;42.266;23.110;2022-07-10T03:20:19;95594.94;;;21.81;52.64
43450;BME280;29041;42.266;23.110;2022-07-10T03:23:06;95599.53;;;21.91;52.37
43450;BME280;29041;42.266;23.110;2022-07-10T03:25:53;95600.88;;;21.54;52.86
43450;BME280;29041;42.266;23.110;2022-07-10T03:28:40;95600.38;;;22.44;51.01
43450;BME280;29041;42.266;23.110;2022-07-10T03:31:27;95586.63;;;23.32;47.65
43450;BME280;29041;42.266;23.110;2022-07-10T03:34:14;95607.09;;;22.32;50.16
43450;BME280;29041;42.266;23.110;2022-07-10T03:37:04;95594.16;;;23.24;48.93
43450;BME280;29041;42.266;23.110;2022-07-10T03:39:51;95607.22;;;22.67;49.69
43450;BME280;29041;42.266;23.110;2022-07-10T03:42:38;95601.38;;;23.72;46.93
43450;BME280;29041;42.266;23.110;2022-07-10T03:45:25;95612.88;;;22.42;50.34
43450;BME280;29041;42.266;23.110;2022-07-10T03:48:13;95597.75;;;23.48;47.77
43450;BME280;29041;42.266;23.110;2022-07-10T03:51:00;95598.41;;;23.28;48.53
43450;BME280;29041;42.266;23.110;2022-07-10T03:53:48;95591.81;;;22.84;49.24
43450;BME280;29041;42.266;23.110;2022-07-10T03:56:36;95595.09;;;23.06;48.74
43450;BME280;29041;42.266;23.110;2022-07-10T03:59:40;95591.81;;;22.35;50.18
43450;BME280;29041;42.266;23.110;2022-07-10T04:02:27;95592.41;;;22.05;51.07
43450;BME280;29041;42.266;23.110;2022-07-10T04:05:14;95586.63;;;22.93;49.00
43450;BME280;29041;42.266;23.110;2022-07-10T04:08:03;95590.78;;;23.05;48.51
43450;BME280;29041;42.266;23.110;2022-07-10T04:10:52;95587.59;;;23.14;48.21
43450;BME280;29041;42.266;23.110;2022-07-10T04:13:39;95594.47;;;22.49;49.60
43450;BME280;29041;42.266;23.110;2022-07-10T04:16:26;95591.59;;;22.15;50.44
43450;BME280;29041;42.266;23.110;2022-07-10T04:19:13;95599.34;;;22.20;50.99
43450;BME280;29041;42.266;23.110;2022-07-10T04:22:01;95578.75;;;22.99;48.45
43450;BME280;29041;42.266;23.110;2022-07-10T04:24:50;95594.72;;;22.66;49.94
43450;BME280;29041;42.266;23.110;2022-07-10T04:27:38;95585.34;;;23.02;49.53
43450;BME280;29041;42.266;23.110;2022-07-10T04:30:26;95577.16;;;22.63;49.73
43450;BME280;29041;42.266;23.110;2022-07-10T04:33:13;95586.56;;;22.10;51.39
43450;BME280;29041;42.266;23.110;2022-07-10T04:36:00;95588.38;;;22.24;51.78
43450;BME280;29041;42.266;23.110;2022-07-10T04:38:47;95575.00;;;22.82;49.82
43450;BME280;29041;42.266;23.110;2022-07-10T04:41:34;95577.53;;;24.00;47.45
43450;BME280;29041;42.266;23.110;2022-07-10T04:44:23;95582.69;;;24.93;44.71
43450;BME280;29041;42.266;23.110;2022-07-10T04:47:10;95578.66;;;24.98;44.36
43450;BME280;29041;42.266;23.110;2022-07-10T04:49:58;95591.16;;;23.45;48.12
43450;BME280;29041;42.266;23.110;2022-07-10T04:52:45;95592.75;;;23.43;48.57
43450;BME280;29041;42.266;23.110;2022-07-10T04:55:32;95586.81;;;23.79;47.31
43450;BME280;29041;42.266;23.110;2022-07-10T04:58:20;95602.09;;;23.76;47.77
43450;BME280;29041;42.266;23.110;2022-07-10T05:01:08;95600.06;;;24.63;45.96
43450;BME280;29041;42.266;23.110;2022-07-10T05:03:55;95592.13;;;24.45;46.71
43450;BME280;29041;42.266;23.110;2022-07-10T05:06:43;95588.78;;;24.06;46.62
43450;BME280;29041;42.266;23.110;2022-07-10T05:09:30;95592.00;;;24.52;46.38
43450;BME280;29041;42.266;23.110;2022-07-10T05:12:17;95586.44;;;24.32;46.68
43450;BME280;29041;42.266;23.110;2022-07-10T05:15:06;95587.22;;;25.24;45.03
43450;BME280;29041;42.266;23.110;2022-07-10T05:17:54;95585.31;;;24.53;46.37
43450;BME280;29041;42.266;23.110;2022-07-10T05:20:42;95579.38;;;25.02;45.82
43450;BME280;29041;42.266;23.110;2022-07-10T05:23:30;95580.88;;;25.47;45.63
43450;BME280;29041;42.266;23.110;2022-07-10T05:26:18;95576.47;;;24.65;48.05
43450;BME280;29041;42.266;23.110;2022-07-10T05:29:05;95575.38;;;25.67;46.43
43450;BME280;29041;42.266;23.110;2022-07-10T05:31:52;95573.31;;;25.51;46.66
43450;BME280;29041;42.266;23.110;2022-07-10T05:34:41;95571.28;;;25.55;46.77
43450;BME280;29041;42.266;23.110;2022-07-10T05:37:28;95560.38;;;25.11;48.10
43450;BME280;29041;42.266;23.110;2022-07-10T05:40:15;95574.59;;;24.38;50.08
43450;BME280;29041;42.266;23.110;2022-07-10T05:43:03;95565.22;;;24.83;48.26
43450;BME280;29041;42.266;23.110;2022-07-10T05:45:50;95566.50;;;25.19;47.58
43450;BME280;29041;42.266;23.110;2022-07-10T05:48:37;95573.28;;;26.57;44.03
43450;BME280;29041;42.266;23.110;2022-07-10T05:51:26;95547.28;;;26.12;45.50
43450;BME280;29041;42.266;23.110;2022-07-10T05:54:14;95544.50;;;26.45;44.46
43450;BME280;29041;42.266;23.110;2022-07-10T05:57:01;95531.91;;;27.20;42.52
43450;BME280;29041;42.266;23.110;2022-07-10T05:59:48;95535.16;;;27.31;43.40
43450;BME280;29041;42.266;23.110;2022-07-10T06:02:36;95539.34;;;26.94;44.62
43450;BME280;29041;42.266;23.110;2022-07-10T06:05:23;95543.81;;;27.46;41.52
43450;BME280;29041;42.266;23.110;2022-07-10T06:08:12;95551.59;;;27.05;42.55
43450;BME280;29041;42.266;23.110;2022-07-10T06:10:59;95540.88;;;27.24;42.59
43450;BME280;29041;42.266;23.110;2022-07-10T06:13:46;95552.06;;;26.58;43.50
43450;BME280;29041;42.266;23.110;2022-07-10T06:16:33;95540.44;;;27.26;42.31
43450;BME280;29041;42.266;23.110;2022-07-10T06:19:21;95549.03;;;27.83;41.38
43450;BME280;29041;42.266;23.110;2022-07-10T06:22:08;95548.97;;;26.56;44.03
43450;BME280;29041;42.266;23.110;2022-07-10T06:25:14;95544.16;;;27.19;42.82
43450;BME280;29041;42.266;23.110;2022-07-10T06:28:01;95547.56;;;26.81;43.65
43450;BME280;29041;42.266;23.110;2022-07-10T06:30:49;95551.00;;;26.85;43.28
43450;BME280;29041;42.266;23.110;2022-07-10T06:33:36;95550.34;;;27.78;40.69
43450;BME280;29041;42.266;23.110;2022-07-10T06:36:23;95499.97;;;27.22;41.80
43450;BME280;29041;42.266;23.110;2022-07-10T06:39:11;95545.59;;;27.79;40.85
43450;BME280;29041;42.266;23.110;2022-07-10T06:41:59;95536.59;;;27.36;41.95
43450;BME280;29041;42.266;23.110;2022-07-10T06:44:47;95543.22;;;27.38;41.22
43450;BME280;29041;42.266;23.110;2022-07-10T06:47:34;95543.47;;;27.57;41.36
43450;BME280;29041;42.266;23.110;2022-07-10T06:50:39;95550.50;;;27.03;42.42
43450;BME280;29041;42.266;23.110;2022-07-10T06:53:26;95526.88;;;27.31;41.60
43450;BME280;29041;42.266;23.110;2022-07-10T06:56:14;95526.72;;;28.29;40.41
43450;BME280;29041;42.266;23.110;2022-07-10T06:59:03;95524.75;;;27.52;41.20
43450;BME280;29041;42.266;23.110;2022-07-10T07:01:50;95535.69;;;28.07;39.55
43450;BME280;29041;42.266;23.110;2022-07-10T07:04:38;95518.44;;;28.16;39.34
43450;BME280;29041;42.266;23.110;2022-07-10T07:07:25;95513.16;;;28.22;39.34
43450;BME280;29041;42.266;23.110;2022-07-10T07:10:12;95520.94;;;28.36;38.88
43450;BME280;29041;42.266;23.110;2022-07-10T07:12:59;95515.75;;;28.86;37.17
43450;BME280;29041;42.266;23.110;2022-07-10T07:15:50;95520.44;;;28.28;38.11
43450;BME280;29041;42.266;23.110;2022-07-10T07:18:44;95505.06;;;28.75;37.08
43450;BME280;29041;42.266;23.110;2022-07-10T07:21:34;95507.97;;;28.72;37.09
43450;BME280;29041;42.266;23.110;2022-07-10T07:24:39;95511.50;;;29.39;36.19
43450;BME280;29041;42.266;23.110;2022-07-10T07:27:26;95504.59;;;29.75;36.12
43450;BME280;29041;42.266;23.110;2022-07-10T07:30:15;95512.91;;;30.25;35.03
43450;BME280;29041;42.266;23.110;2022-07-10T07:33:03;95515.28;;;29.54;36.53
43450;BME280;29041;42.266;23.110;2022-07-10T07:35:56;95509.63;;;29.99;34.40
43450;BME280;29041;42.266;23.110;2022-07-10T07:38:43;95504.34;;;30.51;34.45
43450;BME280;29041;42.266;23.110;2022-07-10T07:41:30;95507.50;;;28.38;38.24
43450;BME280;29041;42.266;23.110;2022-07-10T07:44:18;95498.31;;;28.99;35.88
43450;BME280;29041;42.266;23.110;2022-07-10T07:47:05;95497.19;;;29.72;33.98
43450;BME280;29041;42.266;23.110;2022-07-10T07:49:54;95481.66;;;28.32;36.29
43450;BME280;29041;42.266;23.110;2022-07-10T07:52:41;95507.78;;;29.33;36.90
43450;BME280;29041;42.266;23.110;2022-07-10T07:55:30;95507.97;;;28.11;38.66
43450;BME280;29041;42.266;23.110;2022-07-10T07:58:18;95514.00;;;28.79;37.85
43450;BME280;29041;42.266;23.110;2022-07-10T08:01:06;95494.78;;;29.42;36.74
43450;BME280;29041;42.266;23.110;2022-07-10T08:03:53;95506.28;;;30.13;34.95
43450;BME280;29041;42.266;23.110;2022-07-10T08:06:42;95496.44;;;30.12;35.71
43450;BME280;29041;42.266;23.110;2022-07-10T08:09:29;95496.63;;;33.18;30.58
43450;BME280;29041;42.266;23.110;2022-07-10T08:12:17;95489.06;;;34.76;27.34
43450;BME280;29041;42.266;23.110;2022-07-10T08:15:05;95486.25;;;36.25;26.35
43450;BME280;29041;42.266;23.110;2022-07-10T08:17:53;95493.56;;;34.32;26.80
43450;BME280;29041;42.266;23.110;2022-07-10T08:20:41;95489.44;;;34.07;28.29
43450;BME280;29041;42.266;23.110;2022-07-10T08:23:29;95488.97;;;36.13;25.59
43450;BME280;29041;42.266;23.110;2022-07-10T08:26:16;95484.97;;;36.86;24.69
43450;BME280;29041;42.266;23.110;2022-07-10T08:29:03;95491.50;;;34.68;26.47
43450;BME280;29041;42.266;23.110;2022-07-10T08:31:50;95494.53;;;33.13;29.29
43450;BME280;29041;42.266;23.110;2022-07-10T08:34:38;95483.56;;;33.84;28.38
43450;BME280;29041;42.266;23.110;2022-07-10T08:37:25;95482.72;;;34.55;28.48
43450;BME280;29041;42.266;23.110;2022-07-10T08:40:15;95484.16;;;34.71;26.54
43450;BME280;29041;42.266;23.110;2022-07-10T08:43:03;95481.69;;;34.31;27.79
43450;BME280;29041;42.266;23.110;2022-07-10T08:45:51;95497.63;;;35.19;27.47
43450;BME280;29041;42.266;23.110;2022-07-10T08:48:42;95479.88;;;35.81;25.70
43450;BME280;29041;42.266;23.110;2022-07-10T08:51:36;95479.56;;;36.11;25.62
43450;BME280;29041;42.266;23.110;2022-07-10T08:54:25;95476.84;;;35.84;25.00
43450;BME280;29041;42.266;23.110;2022-07-10T08:57:17;95473.75;;;36.69;24.06
43450;BME280;29041;42.266;23.110;2022-07-10T09:00:06;95472.81;;;36.95;23.26
43450;BME280;29041;42.266;23.110;2022-07-10T09:02:54;95469.88;;;36.06;25.19
43450;BME280;29041;42.266;23.110;2022-07-10T09:05:42;95459.78;;;36.69;23.63
43450;BME280;29041;42.266;23.110;2022-07-10T09:08:30;95466.78;;;33.48;28.30
43450;BME280;29041;42.266;23.110;2022-07-10T09:11:19;95465.19;;;34.95;25.66
43450;BME280;29041;42.266;23.110;2022-07-10T09:14:10;95473.84;;;35.24;24.73
43450;BME280;29041;42.266;23.110;2022-07-10T09:16:58;95470.22;;;33.73;27.14
43450;BME280;29041;42.266;23.110;2022-07-10T09:19:46;95466.44;;;36.89;23.58
43450;BME280;29041;42.266;23.110;2022-07-10T09:22:35;95456.53;;;36.27;24.35
43450;BME280;29041;42.266;23.110;2022-07-10T09:25:29;95458.47;;;35.66;25.04
43450;BME280;29041;42.266;23.110;2022-07-10T09:28:18;95466.41;;;33.11;28.04
43450;BME280;29041;42.266;23.110;2022-07-10T09:31:07;95447.91;;;33.22;27.78
43450;BME280;29041;42.266;23.110;2022-07-10T09:33:54;95463.34;;;35.77;24.17
43450;BME280;29041;42.266;23.110;2022-07-10T09:36:41;95464.69;;;35.50;24.64
43450;BME280;29041;42.266;23.110;2022-07-10T09:39:29;95460.66;;;34.51;25.56
43450;BME280;29041;42.266;23.110;2022-07-10T09:42:28;95452.56;;;35.26;23.88
43450;BME280;29041;42.266;23.110;2022-07-10T09:45:19;95458.59;;;33.75;26.39
43450;BME280;29041;42.266;23.110;2022-07-10T09:48:08;95450.63;;;34.39;25.04
43450;BME280;29041;42.266;23.110;2022-07-10T09:50:57;95445.75;;;36.58;23.31
43450;BME280;29041;42.266;23.110;2022-07-10T09:53:44;95441.75;;;35.72;24.07
43450;BME280;29041;42.266;23.110;2022-07-10T09:56:42;95446.47;;;35.92;23.61
43450;BME280;29041;42.266;23.110;2022-07-10T09:59:31;95441.91;;;34.10;24.72
43450;BME280;29041;42.266;23.110;2022-07-10T10:02:19;95440.47;;;35.09;24.18
43450;BME280;29041;42.266;23.110;2022-07-10T10:05:09;95443.59;;;34.43;25.63
43450;BME280;29041;42.266;23.110;2022-07-10T10:07:58;95445.91;;;34.45;24.18
43450;BME280;29041;42.266;23.110;2022-07-10T10:10:49;95442.94;;;34.13;24.19
43450;BME280;29041;42.266;23.110;2022-07-10T10:13:37;95440.84;;;34.28;24.27
43450;BME280;29041;42.266;23.110;2022-07-10T10:16:25;95437.69;;;35.73;24.15
43450;BME280;29041;42.266;23.110;2022-07-10T10:19:13;95444.09;;;34.68;24.27
43450;BME280;29041;42.266;23.110;2022-07-10T10:22:21;95439.66;;;34.14;24.82
43450;BME280;29041;42.266;23.110;2022-07-10T10:25:09;95436.13;;;32.19;27.59
43450;BME280;29041;42.266;23.110;2022-07-10T10:27:58;95429.84;;;34.60;25.52
43450;BME280;29041;42.266;23.110;2022-07-10T10:30:46;95433.53;;;34.31;25.00
43450;BME280;29041;42.266;23.110;2022-07-10T10:33:44;95420.13;;;34.09;24.10
43450;BME280;29041;42.266;23.110;2022-07-10T10:36:46;95423.25;;;34.37;24.06
43450;BME280;29041;42.266;23.110;2022-07-10T10:39:55;95427.09;;;33.18;26.43
43450;BME280;29041;42.266;23.110;2022-07-10T10:42:43;95404.66;;;33.36;25.96
43450;BME280;29041;42.266;23.110;2022-07-10T10:45:31;95434.03;;;34.29;24.97
43450;BME280;29041;42.266;23.110;2022-07-10T10:48:20;95430.72;;;34.46;23.24
43450;BME280;29041;42.266;23.110;2022-07-10T10:51:07;95415.91;;;33.98;23.87
43450;BME280;29041;42.266;23.110;2022-07-10T10:54:04;95421.00;;;33.64;24.54
43450;BME280;29041;42.266;23.110;2022-07-10T10:57:14;95417.47;;;33.99;24.57
43450;BME280;29041;42.266;23.110;2022-07-10T11:00:03;95412.94;;;34.02;24.28
43450;BME280;29041;42.266;23.110;2022-07-10T11:03:14;95403.25;;;31.36;27.18
43450;BME280;29041;42.266;23.110;2022-07-10T11:06:02;95408.88;;;32.87;25.90
43450;BME280;29041;42.266;23.110;2022-07-10T11:08:50;95406.19;;;33.22;25.31
43450;BME280;29041;42.266;23.110;2022-07-10T11:11:38;95411.81;;;34.14;24.84
43450;BME280;29041;42.266;23.110;2022-07-10T11:14:28;95409.47;;;32.91;26.22
43450;BME280;29041;42.266;23.110;2022-07-10T11:17:16;95412.44;;;32.87;25.70
43450;BME280;29041;42.266;23.110;2022-07-10T11:20:04;95398.16;;;32.40;24.76
43450;BME280;29041;42.266;23.110;2022-07-10T11:23:02;95399.44;;;34.36;23.49
43450;BME280;29041;42.266;23.110;2022-07-10T11:25:54;95405.63;;;34.25;24.37
43450;BME280;29041;42.266;23.110;2022-07-10T11:28:55;95395.41;;;33.96;24.17
43450;BME280;29041;42.266;23.110;2022-07-10T11:31:53;95384.66;;;33.53;24.04
43450;BME280;29041;42.266;23.110;2022-07-10T11:34:41;95396.50;;;33.33;24.09
43450;BME280;29041;42.266;23.110;2022-07-10T11:37:28;95388.28;;;33.95;23.36
43450;BME280;29041;42.266;23.110;2022-07-10T11:40:16;95386.06;;;33.43;24.01
43450;BME280;29041;42.266;23.110;2022-07-10T11:43:05;95388.50;;;33.91;23.54
43450;BME280;29041;42.266;23.110;2022-07-10T11:45:55;95392.78;;;33.72;24.28
43450;BME280;29041;42.266;23.110;2022-07-10T11:48:48;95389.41;;;34.71;23.34
43450;BME280;29041;42.266;23.110;2022-07-10T11:51:38;95386.22;;;34.84;23.82
43450;BME280;29041;42.266;23.110;2022-07-10T11:54:26;95394.34;;;33.58;24.44
43450;BME280;29041;42.266;23.110;2022-07-10T11:57:13;95390.94;;;33.68;23.76
43450;BME280;29041;42.266;23.110;2022-07-10T12:00:00;95397.31;;;34.31;24.16
43450;BME280;29041;42.266;23.110;2022-07-10T12:02:49;95386.19;;;35.74;21.89
43450;BME280;29041;42.266;23.110;2022-07-10T12:05:38;95399.50;;;34.42;23.83
43450;BME280;29041;42.266;23.110;2022-07-10T12:08:27;95383.91;;;33.88;24.26
43450;BME280;29041;42.266;23.110;2022-07-10T12:11:15;95385.28;;;34.19;23.55
43450;BME280;29041;42.266;23.110;2022-07-10T12:14:14;95382.56;;;34.92;22.20
43450;BME280;29041;42.266;23.110;2022-07-10T12:17:10;95384.44;;;34.33;23.66
43450;BME280;29041;42.266;23.110;2022-07-10T12:19:58;95385.50;;;34.15;23.25
43450;BME280;29041;42.266;23.110;2022-07-10T12:22:47;95390.13;;;34.66;23.19
43450;BME280;29041;42.266;23.110;2022-07-10T12:25:35;95380.44;;;33.93;23.94
43450;BME280;29041;42.266;23.110;2022-07-10T12:28:22;95378.81;;;34.75;23.41
43450;BME280;29041;42.266;23.110;2022-07-10T12:31:10;95381.81;;;34.24;24.06
43450;BME280;29041;42.266;23.110;2022-07-10T12:33:58;95379.69;;;33.42;24.47
43450;BME280;29041;42.266;23.110;2022-07-10T12:36:48;95386.53;;;32.66;25.32
43450;BME280;29041;42.266;23.110;2022-07-10T12:39:45;95378.34;;;34.09;23.49
43450;BME280;29041;42.266;23.110;2022-07-10T12:42:33;95388.75;;;33.73;23.75
43450;BME280;29041;42.266;23.110;2022-07-10T12:45:20;95389.97;;;34.28;23.23
43450;BME280;29041;42.266;23.110;2022-07-10T12:48:07;95400.06;;;33.33;25.26
43450;BME280;29041;42.266;23.110;2022-07-10T12:51:24;95385.13;;;32.86;24.80
43450;BME280;29041;42.266;23.110;2022-07-10T12:54:32;95386.53;;;33.11;23.47
43450;BME280;29041;42.266;23.110;2022-07-10T12:57:21;95394.34;;;33.58;22.60
43450;BME280;29041;42.266;23.110;2022-07-10T13:00:09;95396.31;;;32.77;23.64
43450;BME280;29041;42.266;23.110;2022-07-10T13:03:00;95386.78;;;33.58;22.97
43450;BME280;29041;42.266;23.110;2022-07-10T13:05:47;95384.97;;;33.76;23.18
43450;BME280;29041;42.266;23.110;2022-07-10T13:08:44;95400.13;;;32.49;24.89
43450;BME280;29041;42.266;23.110;2022-07-10T13:11:32;95381.13;;;31.84;26.02
43450;BME280;29041;42.266;23.110;2022-07-10T13:14:20;95391.13;;;32.54;23.95
43450;BME280;29041;42.266;23.110;2022-07-10T13:17:09;95394.03;;;33.05;23.37
43450;BME280;29041;42.266;23.110;2022-07-10T13:19:56;95386.75;;;34.35;23.22
43450;BME280;29041;42.266;23.110;2022-07-10T13:22:43;95385.00;;;32.50;24.06
43450;BME280;29041;42.266;23.110;2022-07-10T13:25:31;95379.94;;;33.59;23.64
43450;BME280;29041;42.266;23.110;2022-07-10T13:28:19;95395.41;;;33.81;23.35
43450;BME280;29041;42.266;23.110;2022-07-10T13:31:08;95383.75;;;33.11;22.85
43450;BME280;29041;42.266;23.110;2022-07-10T13:33:55;95352.97;;;33.15;23.67
43450;BME280;29041;42.266;23.110;2022-07-10T13:36:43;95381.00;;;32.81;23.24
43450;BME280;29041;42.266;23.110;2022-07-10T13:39:30;95369.25;;;31.26;24.93
43450;BME280;29041;42.266;23.110;2022-07-10T13:42:17;95385.03;;;31.77;23.86
43450;BME280;29041;42.266;23.110;2022-07-10T13:45:07;95366.81;;;33.09;22.98
43450;BME280;29041;42.266;23.110;2022-07-10T13:47:56;95377.72;;;32.98;23.30
43450;BME280;29041;42.266;23.110;2022-07-10T13:50:44;95383.50;;;32.01;24.98
43450;BME280;29041;42.266;23.110;2022-07-10T13:53:32;95385.38;;;33.18;24.83
43450;BME280;29041;42.266;23.110;2022-07-10T13:56:20;95395.72;;;32.57;24.43
43450;BME280;29041;42.266;23.110;2022-07-10T13:59:07;95379.63;;;32.62;24.45
43450;BME280;29041;42.266;23.110;2022-07-10T14:01:54;95393.59;;;31.22;25.29
43450;BME280;29041;42.266;23.110;2022-07-10T14:04:43;95381.59;;;32.07;25.01
43450;BME280;29041;42.266;23.110;2022-07-10T14:07:30;95393.50;;;32.47;24.92
43450;BME280;29041;42.266;23.110;2022-07-10T14:10:18;95378.00;;;33.15;23.73
43450;BME280;29041;42.266;23.110;2022-07-10T14:13:05;95380.84;;;33.50;23.23
43450;BME280;29041;42.266;23.110;2022-07-10T14:15:54;95385.44;;;32.49;24.52
43450;BME280;29041;42.266;23.110;2022-07-10T14:18:41;95393.25;;;31.29;26.62
43450;BME280;29041;42.266;23.110;2022-07-10T14:21:32;95388.28;;;32.00;25.34
43450;BME280;29041;42.266;23.110;2022-07-10T14:24:19;95393.09;;;32.78;24.69
43450;BME280;29041;42.266;23.110;2022-07-10T14:27:06;95406.50;;;32.40;25.56
43450;BME280;29041;42.266;23.110;2022-07-10T14:29:53;95396.34;;;31.31;26.15
43450;BME280;29041;42.266;23.110;2022-07-10T14:32:40;95405.50;;;31.13;27.12
43450;BME280;29041;42.266;23.110;2022-07-10T14:35:27;95398.16;;;33.10;24.79
43450;BME280;29041;42.266;23.110;2022-07-10T14:38:16;95412.91;;;32.07;25.50
43450;BME280;29041;42.266;23.110;2022-07-10T14:41:04;95406.28;;;32.68;25.07
43450;BME280;29041;42.266;23.110;2022-07-10T14:43:51;95404.84;;;33.03;23.78